createdAt,value
2023-05-26T00:00:03.752Z,997.997
2023-05-26T00:01:01.525Z,998.0613
2023-05-26T00:02:02.094Z,998.1914
2023-05-26T00:03:03.318Z,998.1328
2023-05-26T00:04:03.792Z,998.22
2023-05-26T00:05:03.068Z,998.2558
2023-05-26T00:06:01.894Z,998.1915
2023-05-26T00:07:01.371Z,998.0902
2023-05-26T00:08:03.402Z,998.1702
2023-05-26T00:09:03.913Z,998.0403
2023-05-26T00:10:01.718Z,998.206
2023-05-26T00:11:03.833Z,998.0547
2023-05-26T00:12:03.302Z,998.2889
2023-05-26T00:13:03.745Z,998.2348
2023-05-26T00:14:03.181Z,998.2276
2023-05-26T00:15:02.014Z,998.1263
2023-05-26T00:16:03.156Z,998.1263
2023-05-26T00:17:03.723Z,998.0265
2023-05-26T00:18:03.274Z,998.1778
2023-05-26T00:19:01.899Z,998.0265
2023-05-26T00:20:01.527Z,997.9552
2023-05-26T00:21:01.737Z,997.9838
2023-05-26T00:22:02.928Z,998.1922
2023-05-26T00:23:01.686Z,998.0836
2023-05-26T00:24:03.852Z,998.0194
2023-05-26T00:25:01.628Z,998.1338
2023-05-26T00:26:03.720Z,997.9625
2023-05-26T00:27:01.517Z,997.9197
2023-05-26T00:28:01.993Z,998.1125
2023-05-26T00:29:01.422Z,998.0268
2023-05-26T00:30:01.939Z,998.0554
2023-05-26T00:31:03.067Z,998.2211
2023-05-26T00:32:03.540Z,997.9199
2023-05-26T00:33:01.320Z,997.9199
2023-05-26T00:34:04.021Z,997.9841
2023-05-26T00:36:01.738Z,998.2211
2023-05-26T00:37:03.801Z,998.2752
2023-05-26T00:38:01.653Z,997.9841
2023-05-26T00:39:02.133Z,998.1783
2023-05-26T00:40:03.266Z,998.1126
2023-05-26T00:41:03.760Z,998.1198
2023-05-26T00:42:01.541Z,998.1997
2023-05-26T00:43:01.989Z,998.077
2023-05-26T00:44:03.075Z,998.0343
2023-05-26T00:45:01.926Z,998.1199
2023-05-26T00:46:03.052Z,998.0701
2023-05-26T00:47:01.973Z,998.1199
2023-05-26T00:48:01.411Z,998.1199
2023-05-26T00:49:01.783Z,998.0416
2023-05-26T00:50:03.878Z,998.0702
2023-05-26T00:51:03.337Z,998.2615
2023-05-26T00:52:02.139Z,998.2073
2023-05-26T00:53:03.276Z,998.2073
2023-05-26T00:54:02.044Z,997.9918
2023-05-26T00:55:03.111Z,998.0844
2023-05-26T00:56:01.945Z,998.2357
2023-05-26T00:57:03.072Z,998.1199
2023-05-26T00:58:03.499Z,998.0343
2023-05-26T00:59:01.305Z,998.0914
2023-05-26T01:00:03.425Z,998.0057
2023-05-26T01:02:01.726Z,998.0057
2023-05-26T01:03:02.291Z,998.0628
2023-05-26T01:04:01.697Z,998.0628
2023-05-26T01:05:03.795Z,998.0057
2023-05-26T01:06:03.296Z,997.9132
2023-05-26T01:07:02.085Z,997.956
2023-05-26T01:08:01.521Z,998.1716
2023-05-26T01:09:03.638Z,998.0489
2023-05-26T01:10:01.436Z,998.0348
2023-05-26T01:11:01.946Z,997.9564
2023-05-26T01:12:01.358Z,997.9564
2023-05-26T01:13:01.863Z,998.035
2023-05-26T01:14:01.361Z,997.8737
2023-05-26T01:15:03.428Z,997.9778
2023-05-26T01:16:02.243Z,997.9493
2023-05-26T01:17:01.815Z,998.0634
2023-05-26T01:18:02.279Z,997.8852
2023-05-26T01:19:01.642Z,997.9566
2023-05-26T01:20:02.173Z,998.0066
2023-05-26T01:21:01.555Z,997.8853
2023-05-26T01:22:02.046Z,997.7814
2023-05-26T01:23:01.488Z,997.9855
2023-05-26T01:24:01.940Z,997.9855
2023-05-26T01:25:01.386Z,997.7745
2023-05-26T01:26:01.893Z,997.9357
2023-05-26T01:27:02.991Z,997.9859
2023-05-26T01:28:03.457Z,997.782
2023-05-26T01:29:01.274Z,997.8861
2023-05-26T01:30:03.340Z,997.8747
2023-05-26T01:31:03.824Z,997.9432
2023-05-26T01:32:03.273Z,997.8676
2023-05-26T01:33:03.872Z,997.9432
2023-05-26T01:34:03.284Z,997.8861
2023-05-26T01:35:03.725Z,997.9432
2023-05-26T01:36:01.471Z,997.8676
2023-05-26T01:37:03.626Z,997.8747
2023-05-26T01:38:01.399Z,997.8605
2023-05-26T01:39:01.910Z,997.889
2023-05-26T01:40:02.963Z,997.8249
2023-05-26T01:41:03.473Z,997.7966
2023-05-26T01:42:02.936Z,997.9005
2023-05-26T01:43:01.725Z,997.7964
2023-05-26T01:44:02.177Z,997.8534
2023-05-26T01:45:01.683Z,997.929
2023-05-26T01:46:03.801Z,997.7966
2023-05-26T01:47:03.294Z,997.9506
2023-05-26T01:48:02.044Z,998.0148
2023-05-26T01:49:01.472Z,998.0933
2023-05-26T01:50:02.003Z,997.8752
2023-05-26T01:51:03.062Z,997.9081
2023-05-26T01:52:01.842Z,997.8825
2023-05-26T01:53:01.328Z,998.065
2023-05-26T01:54:01.766Z,997.9438
2023-05-26T01:55:02.279Z,997.8798
2023-05-26T01:56:01.692Z,997.9083
2023-05-26T01:57:02.212Z,998.058
2023-05-26T01:58:01.644Z,998.0439
2023-05-26T01:59:03.848Z,998.0154
2023-05-26T02:00:01.587Z,997.8687
2023-05-26T02:01:02.052Z,998.0013
2023-05-26T02:02:03.269Z,997.8945
2023-05-26T02:03:02.025Z,997.8945
2023-05-26T02:04:01.467Z,997.876
2023-05-26T02:05:03.506Z,997.8049
2023-05-26T02:06:02.952Z,997.9517
2023-05-26T02:07:03.415Z,997.9446
2023-05-26T02:08:03.853Z,997.9446
2023-05-26T02:09:03.321Z,997.8834
2023-05-26T02:10:02.120Z,997.8876
2023-05-26T02:11:01.578Z,997.8764
2023-05-26T02:12:02.026Z,997.7624
2023-05-26T02:13:01.469Z,997.8052
2023-05-26T02:14:01.920Z,997.9803
2023-05-26T02:15:03.038Z,997.8196
2023-05-26T02:16:03.584Z,997.9164
2023-05-26T02:17:01.275Z,997.9664
2023-05-26T02:18:03.428Z,997.9664
2023-05-26T02:19:02.205Z,997.9379
2023-05-26T02:20:01.691Z,997.8809
2023-05-26T02:21:03.769Z,997.9379
2023-05-26T02:22:03.219Z,997.9949
2023-05-26T02:23:02.050Z,997.9949
2023-05-26T02:24:01.511Z,997.995
2023-05-26T02:25:01.976Z,997.7985
2023-05-26T02:26:01.374Z,997.9096
2023-05-26T02:27:01.904Z,997.8626
2023-05-26T02:28:01.354Z,998.052
2023-05-26T02:29:01.850Z,998.109
2023-05-26T02:30:01.283Z,997.9383
2023-05-26T02:31:01.775Z,997.7773
2023-05-26T02:32:03.979Z,997.8771
2023-05-26T02:33:03.397Z,997.806
2023-05-26T02:34:02.152Z,998.0025
2023-05-26T02:35:03.255Z,998.0879
2023-05-26T02:36:02.077Z,997.8956
2023-05-26T02:37:01.582Z,997.974
2023-05-26T02:38:02.048Z,998.3216
2023-05-26T02:39:01.595Z,997.9598
2023-05-26T02:40:01.985Z,998.1093
2023-05-26T02:41:03.143Z,997.8702
2023-05-26T02:42:03.571Z,997.9456
2023-05-26T02:43:03.000Z,998.2605
2023-05-26T02:44:03.444Z,997.7777
2023-05-26T02:45:02.957Z,997.9741
2023-05-26T02:46:01.794Z,998.0951
2023-05-26T02:47:03.875Z,997.9313
2023-05-26T02:48:03.347Z,997.9812
2023-05-26T02:49:02.189Z,997.8957
2023-05-26T02:50:03.305Z,997.9101
2023-05-26T02:51:02.115Z,997.9671
2023-05-26T02:52:01.608Z,997.9244
2023-05-26T02:53:03.697Z,998.0171
2023-05-26T02:54:01.469Z,997.9887
2023-05-26T02:55:01.968Z,997.9105
2023-05-26T02:56:03.070Z,998.0317
2023-05-26T02:57:01.926Z,997.9535
2023-05-26T02:58:01.381Z,997.9251
2023-05-26T02:59:03.478Z,997.9607
2023-05-26T03:00:01.334Z,997.9961
2023-05-26T03:01:03.498Z,997.8139
2023-05-26T03:02:02.210Z,998.0103
2023-05-26T03:03:01.793Z,997.9319
2023-05-26T03:04:03.854Z,997.9319
2023-05-26T03:05:04.667Z,998.003
2023-05-26T03:06:02.116Z,997.946
2023-05-26T03:07:03.275Z,998.0171
2023-05-26T03:08:03.702Z,997.9532
2023-05-26T03:09:03.150Z,997.885
2023-05-26T03:10:01.959Z,997.8068
2023-05-26T03:11:10.567Z,997.8139
2023-05-26T03:12:01.938Z,997.9034
2023-05-26T03:13:03.015Z,998.0814
2023-05-26T03:14:01.821Z,997.9319
2023-05-26T03:15:01.300Z,997.885
2023-05-26T03:16:01.791Z,997.9105
2023-05-26T03:17:03.016Z,997.8424
2023-05-26T03:18:01.757Z,997.9107
2023-05-26T03:19:03.863Z,997.9251
2023-05-26T03:20:01.712Z,997.8895
2023-05-26T03:21:02.166Z,998.032
2023-05-26T03:22:41.027Z,997.8498
2023-05-26T03:23:03.729Z,997.8638
2023-05-26T03:24:03.195Z,997.9319
2023-05-26T03:25:02.008Z,997.9105
2023-05-26T03:26:03.142Z,997.946
2023-05-26T03:27:01.949Z,997.9887
2023-05-26T03:28:01.412Z,997.7994
2023-05-26T03:29:03.493Z,997.9887
2023-05-26T03:30:01.344Z,997.7139
2023-05-26T03:31:03.460Z,997.6641
2023-05-26T03:32:01.301Z,997.7495
2023-05-26T03:33:01.814Z,998.0171
2023-05-26T03:34:02.236Z,997.8278
2023-05-26T03:35:03.349Z,997.946
2023-05-26T03:36:02.139Z,997.7424
2023-05-26T03:37:02.190Z,997.7994
2023-05-26T03:38:02.075Z,997.6285
2023-05-26T03:39:03.184Z,997.6854
2023-05-26T03:40:01.986Z,997.8278
2023-05-26T03:41:01.503Z,997.6215
2023-05-26T03:42:01.956Z,997.7424
2023-05-26T03:43:01.488Z,997.8349
2023-05-26T03:44:01.932Z,997.7424
2023-05-26T03:45:03.027Z,997.657
2023-05-26T03:46:01.892Z,997.9532
2023-05-26T03:47:02.963Z,998.1238
2023-05-26T03:48:01.796Z,997.778
2023-05-26T03:49:02.961Z,997.8205
2023-05-26T03:50:03.595Z,997.9671
2023-05-26T03:51:03.856Z,997.8558
2023-05-26T03:52:01.668Z,997.7704
2023-05-26T03:53:02.167Z,997.9241
2023-05-26T03:54:03.288Z,997.7062
2023-05-26T03:55:02.110Z,997.7204
2023-05-26T03:56:01.593Z,997.7844
2023-05-26T03:57:02.085Z,997.884
2023-05-26T03:58:01.524Z,997.7486
2023-05-26T03:59:02.023Z,997.8624
2023-05-26T04:00:01.513Z,997.7769
2023-05-26T04:01:03.610Z,997.7555
2023-05-26T04:02:01.486Z,997.9377
2023-05-26T04:03:01.925Z,997.8406
2023-05-26T04:04:01.399Z,997.8691
2023-05-26T04:05:03.481Z,997.9161
2023-05-26T04:06:01.300Z,997.7907
2023-05-26T04:07:03.366Z,997.9515
2023-05-26T04:08:02.242Z,997.8332
2023-05-26T04:09:01.750Z,997.9655
2023-05-26T04:10:03.820Z,997.8685
2023-05-26T04:11:01.640Z,997.8798
2023-05-26T04:12:02.124Z,997.901
2023-05-26T04:13:01.584Z,997.8111
2023-05-26T04:14:02.677Z,997.9079
2023-05-26T04:15:03.111Z,997.929
2023-05-26T04:16:02.118Z,997.9431
2023-05-26T04:17:03.132Z,998.05
2023-05-26T04:18:01.937Z,998.1868
2023-05-26T04:19:01.321Z,997.8886
2023-05-26T04:20:05.889Z,997.8885
2023-05-26T04:21:02.966Z,997.8455
2023-05-26T04:22:03.390Z,997.9566
2023-05-26T04:23:02.206Z,997.8994
2023-05-26T04:24:01.697Z,997.9991
2023-05-26T04:25:02.182Z,998.0204
2023-05-26T04:26:03.327Z,998.0917
2023-05-26T04:27:03.701Z,997.9988
2023-05-26T04:28:01.566Z,998.0057
2023-05-26T04:29:02.037Z,998.1198
2023-05-26T04:30:03.137Z,998.2209
2023-05-26T04:31:01.981Z,998.1338
2023-05-26T04:32:03.116Z,998.2422
2023-05-26T04:33:03.691Z,998.2137
2023-05-26T04:34:01.393Z,998.275
2023-05-26T04:35:03.544Z,998.0836
2023-05-26T04:36:02.956Z,998.2349
2023-05-26T04:37:01.795Z,998.0836
2023-05-26T04:38:02.952Z,998.3391
2023-05-26T04:39:01.747Z,998.2748
2023-05-26T04:40:02.246Z,998.3532
2023-05-26T04:41:01.688Z,998.3674
2023-05-26T04:42:03.813Z,998.4102
2023-05-26T04:43:01.723Z,998.4459
2023-05-26T04:44:02.142Z,998.1844
2023-05-26T04:45:03.248Z,998.3173
2023-05-26T04:46:02.076Z,998.3457
2023-05-26T04:47:03.160Z,998.1913
2023-05-26T04:48:02.042Z,998.1914
2023-05-26T04:49:03.101Z,998.3312
2023-05-26T04:50:02.066Z,998.4597
2023-05-26T04:51:03.004Z,998.3025
2023-05-26T04:52:01.832Z,998.2953
2023-05-26T04:53:01.297Z,998.3882
2023-05-26T04:54:01.780Z,998.3524
2023-05-26T04:55:02.260Z,998.4666
2023-05-26T04:56:04.711Z,998.3736
2023-05-26T04:57:02.120Z,998.4164
2023-05-26T04:58:03.183Z,998.5164
2023-05-26T04:59:02.001Z,998.3805
2023-05-26T05:00:03.106Z,998.4233
2023-05-26T05:01:01.886Z,998.3589
2023-05-26T05:02:01.424Z,998.3159
2023-05-26T05:03:01.843Z,998.3874
2023-05-26T05:04:01.336Z,998.2586
2023-05-26T05:05:01.838Z,998.6087
2023-05-26T05:06:02.270Z,998.3655
2023-05-26T05:07:01.699Z,998.4512
2023-05-26T05:08:03.799Z,998.5226
2023-05-26T05:09:01.648Z,998.358
2023-05-26T05:10:02.071Z,998.3649
2023-05-26T05:11:03.153Z,998.3291
2023-05-26T05:12:01.966Z,998.429
2023-05-26T05:13:01.471Z,998.2786
2023-05-26T05:14:03.618Z,998.4572
2023-05-26T05:15:03.257Z,998.3281
2023-05-26T05:16:01.908Z,998.4426
2023-05-26T05:17:01.325Z,998.4784
2023-05-26T05:18:01.819Z,998.2522
2023-05-26T05:20:15.126Z,998.2301
2023-05-26T05:21:02.243Z,998.2771
2023-05-26T05:22:01.685Z,998.3198
2023-05-26T05:23:03.730Z,998.4268
2023-05-26T05:24:01.543Z,998.4337
2023-05-26T05:25:02.062Z,998.4766
2023-05-26T05:26:03.133Z,998.462
2023-05-26T05:27:03.593Z,998.4188
2023-05-26T05:28:03.078Z,998.3684
2023-05-26T05:29:03.469Z,998.5693
2023-05-26T05:30:01.310Z,998.5475
2023-05-26T05:31:01.778Z,998.5691
2023-05-26T05:32:02.277Z,998.4255
2023-05-26T05:33:03.486Z,998.5257
2023-05-26T05:34:02.140Z,998.3965
2023-05-26T05:35:03.283Z,998.4251
2023-05-26T05:36:03.701Z,998.3963
2023-05-26T05:37:03.125Z,998.5037
2023-05-26T05:38:03.618Z,998.518
2023-05-26T05:39:03.027Z,998.5394
2023-05-26T05:40:01.923Z,998.4676
2023-05-26T05:41:02.980Z,998.3957
2023-05-26T05:42:01.794Z,998.4385
2023-05-26T05:43:03.880Z,998.4958
2023-05-26T05:44:01.720Z,998.6106
2023-05-26T05:45:03.870Z,998.5745
2023-05-26T05:46:03.318Z,998.4663
2023-05-26T05:47:03.759Z,998.4803
2023-05-26T05:48:01.712Z,998.5808
2023-05-26T05:49:02.026Z,998.5301
2023-05-26T05:50:01.476Z,998.5371
2023-05-26T05:51:01.969Z,998.3499
2023-05-26T05:52:01.463Z,998.4574
2023-05-26T05:53:03.553Z,998.5433
2023-05-26T05:54:01.394Z,998.392
2023-05-26T05:55:01.833Z,998.543
2023-05-26T05:56:03.692Z,998.4566
2023-05-26T05:57:03.449Z,998.5715
2023-05-26T05:58:02.246Z,998.6145
2023-05-26T05:59:01.682Z,998.6865
2023-05-26T06:00:02.192Z,998.5782
2023-05-26T06:01:01.608Z,998.5279
2023-05-26T06:02:02.120Z,998.4415
2023-05-26T06:03:02.233Z,998.4845
2023-05-26T06:04:03.815Z,998.5346
2023-05-26T06:05:03.659Z,998.6208
2023-05-26T06:06:03.786Z,998.7215
2023-05-26T06:07:02.960Z,998.6496
2023-05-26T06:08:03.505Z,998.5775
2023-05-26T06:09:02.950Z,998.5485
2023-05-26T06:10:01.846Z,998.6348
2023-05-26T06:12:03.373Z,998.6348
2023-05-26T06:13:03.842Z,998.6126
2023-05-26T06:14:03.325Z,998.6201
2023-05-26T06:15:02.133Z,998.649
2023-05-26T06:16:03.172Z,998.7426
2023-05-26T06:17:02.113Z,998.5331
2023-05-26T06:18:01.569Z,998.5329
2023-05-26T06:19:03.609Z,998.6268
2023-05-26T06:20:01.456Z,998.6121
2023-05-26T06:21:02.048Z,998.6263
2023-05-26T06:22:01.365Z,998.6481
2023-05-26T06:23:01.864Z,998.7126
2023-05-26T06:24:01.323Z,998.6766
2023-05-26T06:25:03.429Z,998.7487
2023-05-26T06:26:01.237Z,998.633
2023-05-26T06:27:01.728Z,998.6184
2023-05-26T06:28:03.866Z,998.8423
2023-05-26T06:29:03.301Z,998.5819
2023-05-26T06:30:03.778Z,998.6113
2023-05-26T06:31:01.611Z,998.6473
2023-05-26T06:32:03.683Z,998.7843
2023-05-26T06:33:03.186Z,998.7628
2023-05-26T06:34:02.012Z,998.6834
2023-05-26T06:35:01.457Z,998.8421
2023-05-26T06:36:01.968Z,998.6978
2023-05-26T06:37:01.460Z,998.7123
2023-05-26T06:38:01.844Z,998.7917
2023-05-26T06:39:01.322Z,998.929
2023-05-26T06:40:03.524Z,998.9289
2023-05-26T06:41:02.244Z,998.8854
2023-05-26T06:42:01.719Z,998.8633
2023-05-26T06:43:03.788Z,998.8919
2023-05-26T06:44:01.591Z,998.7617
2023-05-26T06:45:02.074Z,998.7977
2023-05-26T06:46:01.539Z,998.7833
2023-05-26T06:47:02.082Z,998.9131
2023-05-26T06:48:03.107Z,998.7318
2023-05-26T06:49:01.929Z,998.92
2023-05-26T06:50:01.403Z,998.8915
2023-05-26T06:51:01.879Z,999
2023-05-26T06:52:01.358Z,998.8915
2023-05-26T06:53:01.808Z,998.812
2023-05-26T06:54:03.876Z,998.7754
2023-05-26T06:55:01.684Z,998.9636
2023-05-26T06:56:02.189Z,998.8332
2023-05-26T06:57:01.611Z,998.826
2023-05-26T06:58:02.101Z,999.0071
2023-05-26T06:59:01.562Z,998.9494
2023-05-26T07:00:02.012Z,998.8916
2023-05-26T07:01:01.504Z,998.8051
2023-05-26T07:02:03.733Z,998.8339
2023-05-26T07:03:01.400Z,998.79
2023-05-26T07:04:01.856Z,998.746
2023-05-26T07:05:01.300Z,998.9847
2023-05-26T07:06:01.859Z,998.9484
2023-05-26T07:07:02.271Z,998.8324
2023-05-26T07:08:01.712Z,998.8324
2023-05-26T07:09:02.172Z,999.0643
2023-05-26T07:10:01.624Z,998.8398
2023-05-26T07:11:03.805Z,998.9484
2023-05-26T07:12:01.529Z,998.9774
2023-05-26T07:13:03.694Z,998.9845
2023-05-26T07:14:01.506Z,998.8752
2023-05-26T07:15:03.642Z,998.9693
2023-05-26T07:16:01.459Z,998.7805
2023-05-26T07:17:02.550Z,998.9403
2023-05-26T07:18:03.053Z,998.8967
2023-05-26T07:19:01.879Z,998.6789
2023-05-26T07:20:02.969Z,998.8457
2023-05-26T07:21:03.420Z,998.8456
2023-05-26T07:23:03.328Z,998.6789
2023-05-26T07:24:02.198Z,998.7875
2023-05-26T07:25:01.674Z,998.8094
2023-05-26T07:26:03.775Z,998.795
2023-05-26T07:27:01.594Z,998.8963
2023-05-26T07:28:03.702Z,999.0559
2023-05-26T07:29:03.159Z,998.867
2023-05-26T07:30:03.602Z,998.8088
2023-05-26T07:31:01.394Z,998.7507
2023-05-26T07:32:03.548Z,998.9103
2023-05-26T07:33:03.007Z,998.9106
2023-05-26T07:34:03.417Z,998.8673
2023-05-26T07:35:03.861Z,999.0415
2023-05-26T07:36:03.278Z,998.9545
2023-05-26T07:37:02.148Z,998.8892
2023-05-26T07:38:03.199Z,998.9258
2023-05-26T07:39:02.153Z,998.9838
2023-05-26T07:40:01.480Z,999.0418
2023-05-26T07:41:02.043Z,998.9907
2023-05-26T07:42:03.023Z,998.8452
2023-05-26T07:43:03.510Z,998.8522
2023-05-26T07:44:02.957Z,998.9318
2023-05-26T07:45:01.778Z,999.1062
2023-05-26T07:46:03.955Z,998.9754
2023-05-26T07:47:03.339Z,999.0044
2023-05-26T07:48:03.837Z,998.9606
2023-05-26T07:49:03.264Z,999.0113
2023-05-26T07:50:03.661Z,999.1059
2023-05-26T07:51:03.148Z,999.0769
2023-05-26T07:52:01.951Z,999.077
2023-05-26T07:53:03.058Z,999.0916
2023-05-26T07:54:03.486Z,999.0115
2023-05-26T07:55:02.938Z,998.9318
2023-05-26T07:56:03.380Z,998.9827
2023-05-26T07:57:02.237Z,999.1133
2023-05-26T07:58:03.356Z,999.0842
2023-05-26T07:59:03.797Z,998.9532
2023-05-26T08:00:01.632Z,999.0113
2023-05-26T08:01:03.693Z,999.0768
2023-05-26T08:02:03.329Z,998.9169
2023-05-26T08:03:03.668Z,999.0694
2023-05-26T08:04:03.052Z,999.0111
2023-05-26T08:05:03.535Z,998.9822
2023-05-26T08:06:07.814Z,998.9387
2023-05-26T08:07:03.432Z,998.8294
2023-05-26T08:08:02.215Z,998.982
2023-05-26T08:09:04.311Z,998.8583
2023-05-26T08:10:02.119Z,998.8945
2023-05-26T08:11:03.173Z,998.8144
2023-05-26T08:12:02.008Z,998.8653
2023-05-26T08:13:01.509Z,998.865
2023-05-26T08:14:01.955Z,998.9957
2023-05-26T08:15:01.380Z,998.9155
2023-05-26T08:16:02.104Z,998.8934
2023-05-26T08:17:02.979Z,998.9222
2023-05-26T08:18:01.888Z,998.7839
2023-05-26T08:20:03.426Z,998.8131
2023-05-26T08:21:03.843Z,998.7913
2023-05-26T08:22:01.641Z,998.8495
2023-05-26T08:23:02.464Z,998.813
2023-05-26T08:24:03.225Z,998.8057
2023-05-26T08:25:03.740Z,998.8783
2023-05-26T08:26:04.551Z,999.0312
2023-05-26T08:27:03.626Z,998.878
2023-05-26T08:28:01.459Z,998.8636
2023-05-26T08:29:01.925Z,998.8054
2023-05-26T08:30:01.377Z,998.8637
2023-05-26T08:31:01.887Z,998.8783
2023-05-26T08:32:02.970Z,998.8999
2023-05-26T08:33:03.461Z,998.6811
2023-05-26T08:34:02.132Z,998.7976
2023-05-26T08:35:03.272Z,998.7683
2023-05-26T08:36:02.096Z,998.6953
2023-05-26T08:37:03.195Z,998.8998
2023-05-26T08:38:02.026Z,998.7466
2023-05-26T08:39:03.081Z,998.7243
2023-05-26T08:40:01.910Z,998.8775
2023-05-26T08:41:01.381Z,998.819
2023-05-26T08:42:01.882Z,998.7388
2023-05-26T08:43:02.940Z,998.7462
2023-05-26T08:44:06.676Z,998.7534
2023-05-26T08:45:02.211Z,998.7824
2023-05-26T08:46:03.424Z,998.7677
2023-05-26T08:47:03.886Z,998.7674
2023-05-26T08:48:01.619Z,998.7747
2023-05-26T08:49:03.678Z,998.8329
2023-05-26T08:50:01.454Z,998.7311
2023-05-26T08:51:01.926Z,998.8916
2023-05-26T08:52:01.418Z,998.855
2023-05-26T08:53:06.552Z,998.7749
2023-05-26T08:54:01.313Z,998.7459
2023-05-26T08:55:01.786Z,998.833
2023-05-26T08:56:01.274Z,998.7383
2023-05-26T08:57:03.451Z,998.8478
2023-05-26T08:58:02.207Z,998.7748
2023-05-26T08:59:01.654Z,998.8478
2023-05-26T09:00:03.826Z,998.6874
2023-05-26T09:01:01.688Z,998.7311
2023-05-26T09:02:02.037Z,998.7458
2023-05-26T09:03:03.312Z,998.8701
2023-05-26T09:04:03.632Z,998.7825
2023-05-26T09:05:01.447Z,998.7605
2023-05-26T09:06:01.857Z,998.7163
2023-05-26T09:07:24.176Z,998.7163
2023-05-26T09:08:01.757Z,998.7525
2023-05-26T09:09:03.848Z,998.8181
2023-05-26T09:10:03.300Z,998.804
2023-05-26T09:11:02.112Z,998.8554
2023-05-26T09:12:01.552Z,998.7754
2023-05-26T09:13:02.063Z,998.8412
2023-05-26T09:14:01.508Z,998.8922
2023-05-26T09:15:03.618Z,998.8047
2023-05-26T09:16:13.854Z,998.8339
2023-05-26T09:17:01.891Z,998.8701
2023-05-26T09:18:01.403Z,999.0157
2023-05-26T09:19:01.791Z,999.0081
2023-05-26T09:20:02.308Z,998.9348
2023-05-26T09:21:01.748Z,999.0151
2023-05-26T09:22:03.833Z,998.9787
2023-05-26T09:23:01.663Z,998.701
2023-05-26T09:24:02.116Z,998.7665
2023-05-26T09:25:01.582Z,998.9196
2023-05-26T09:26:03.658Z,998.7956
2023-05-26T09:27:01.470Z,998.7956
2023-05-26T09:28:03.595Z,998.8541
2023-05-26T09:29:03.058Z,998.8911
2023-05-26T09:30:01.945Z,999.0228
2023-05-26T09:31:03.020Z,998.855
2023-05-26T09:32:01.820Z,998.9938
2023-05-26T09:33:02.939Z,998.9428
2023-05-26T09:34:03.336Z,998.9284
2023-05-26T09:35:02.287Z,998.8627
2023-05-26T09:36:03.482Z,998.9062
2023-05-26T09:37:03.767Z,998.9497
2023-05-26T09:38:01.578Z,999.1321
2023-05-26T09:39:02.038Z,998.7886
2023-05-26T09:40:03.159Z,998.9126
2023-05-26T09:42:02.012Z,998.8541
2023-05-26T09:43:03.584Z,998.8321
2023-05-26T09:44:01.380Z,998.9633
2023-05-26T09:45:01.845Z,998.8316
2023-05-26T09:46:01.385Z,998.8974
2023-05-26T09:47:03.446Z,999.0362
2023-05-26T09:49:01.748Z,998.8898
2023-05-26T09:50:02.243Z,998.9631
2023-05-26T09:51:03.354Z,998.9193
2023-05-26T09:52:12.671Z,998.9997
2023-05-26T09:53:01.614Z,998.9337
2023-05-26T09:54:02.121Z,998.9923
2023-05-26T09:55:01.522Z,999.0875
2023-05-26T09:56:01.980Z,998.9488
2023-05-26T09:57:01.459Z,999.0437
2023-05-26T09:58:01.949Z,999.0146
2023-05-26T09:59:01.380Z,999.0515
2023-05-26T10:00:03.523Z,998.9274
2023-05-26T10:01:02.935Z,999.0371
2023-05-26T10:02:01.811Z,999.0298
2023-05-26T10:03:02.273Z,999.0079
2023-05-26T10:04:01.689Z,999.1394
2023-05-26T10:05:03.984Z,999.205
2023-05-26T10:06:01.714Z,999.0883
2023-05-26T10:07:02.058Z,998.8034
2023-05-26T10:08:01.516Z,998.8908
2023-05-26T10:09:02.023Z,998.9126
2023-05-26T10:10:01.521Z,998.9492
2023-05-26T10:11:02.026Z,998.9565
2023-05-26T10:12:01.420Z,998.8833
2023-05-26T10:13:01.942Z,998.9049
2023-05-26T10:14:02.991Z,998.9193
2023-05-26T10:15:01.903Z,998.8609
2023-05-26T10:16:03.011Z,998.9852
2023-05-26T10:17:01.846Z,998.9048
2023-05-26T10:18:02.999Z,998.7587
2023-05-26T10:19:01.755Z,998.8902
2023-05-26T10:20:02.291Z,998.9707
2023-05-26T10:21:03.281Z,998.7586
2023-05-26T10:22:03.854Z,998.6639
2023-05-26T10:23:01.654Z,998.7733
2023-05-26T10:24:03.798Z,998.8031
2023-05-26T10:25:03.181Z,998.8687
2023-05-26T10:26:02.067Z,998.8978
2023-05-26T10:27:03.155Z,998.9341
2023-05-26T10:28:03.589Z,999.0217
2023-05-26T10:29:01.440Z,998.9337
2023-05-26T10:30:03.531Z,998.8385
2023-05-26T10:31:03.144Z,998.6408
2023-05-26T10:32:01.857Z,998.6701
2023-05-26T10:33:01.357Z,998.8236
2023-05-26T10:34:03.407Z,998.6995
2023-05-26T10:35:02.255Z,998.6776
2023-05-26T10:36:03.345Z,998.6995
2023-05-26T10:37:03.802Z,998.8752
2023-05-26T10:38:01.616Z,998.8097
2023-05-26T10:39:02.083Z,998.7582
2023-05-26T10:40:03.205Z,998.678
2023-05-26T10:41:03.654Z,998.7948
2023-05-26T10:42:03.046Z,998.8021
2023-05-26T10:43:03.515Z,998.6412
2023-05-26T10:44:02.965Z,998.6994
2023-05-26T10:45:01.780Z,998.6115
2023-05-26T10:46:02.349Z,998.6847
2023-05-26T10:47:01.695Z,998.7504
2023-05-26T10:48:03.873Z,998.6407
2023-05-26T10:49:01.590Z,998.6701
2023-05-26T10:50:03.728Z,998.765
2023-05-26T10:51:03.142Z,998.6699
2023-05-26T10:52:01.983Z,998.8749
2023-05-26T10:53:01.443Z,998.8311
2023-05-26T10:54:01.939Z,998.7286
2023-05-26T10:55:01.486Z,998.6409
2023-05-26T10:56:03.487Z,998.7873
2023-05-26T10:57:02.924Z,998.8164
2023-05-26T10:58:01.725Z,998.5896
2023-05-26T10:59:03.837Z,998.6115
2023-05-26T11:00:03.291Z,998.787
2023-05-26T11:01:03.879Z,998.6701
2023-05-26T11:02:01.552Z,998.6479
2023-05-26T11:03:02.091Z,998.721
2023-05-26T11:04:01.467Z,998.7872
2023-05-26T11:05:03.575Z,998.6409
2023-05-26T11:06:03.017Z,998.6625
2023-05-26T11:07:01.908Z,998.56
2023-05-26T11:08:02.984Z,998.6842
2023-05-26T11:09:01.783Z,998.7865
2023-05-26T11:10:04.006Z,998.8598
2023-05-26T11:11:03.389Z,998.6188
2023-05-26T11:12:02.166Z,998.6703
2023-05-26T11:13:01.622Z,998.5461
2023-05-26T11:14:02.130Z,998.641
2023-05-26T11:15:01.550Z,998.6994
2023-05-26T11:16:03.710Z,998.7944
2023-05-26T11:17:01.605Z,998.7797
2023-05-26T11:18:02.019Z,998.6115
2023-05-26T11:19:03.045Z,998.648
2023-05-26T11:20:01.951Z,998.6479
2023-05-26T11:21:01.325Z,998.6334
2023-05-26T11:22:03.443Z,998.6772
2023-05-26T11:23:02.914Z,998.6479
2023-05-26T11:24:01.730Z,998.5894
2023-05-26T11:25:03.819Z,998.5824
2023-05-26T11:26:03.304Z,998.7436
2023-05-26T11:27:02.074Z,998.5533
2023-05-26T11:28:01.552Z,998.5899
2023-05-26T11:29:02.007Z,998.7509
2023-05-26T11:30:01.467Z,998.6268
2023-05-26T11:31:01.962Z,998.5025
2023-05-26T11:32:01.989Z,998.729
2023-05-26T11:33:01.419Z,998.6705
2023-05-26T11:34:03.506Z,998.5242
2023-05-26T11:35:01.299Z,998.4069
2023-05-26T11:36:01.783Z,998.4215
2023-05-26T11:37:03.889Z,998.5016
2023-05-26T11:38:03.340Z,998.604
2023-05-26T11:39:02.270Z,998.5454
2023-05-26T11:40:01.639Z,998.6039
2023-05-26T11:41:02.114Z,998.5749
2023-05-26T11:42:03.255Z,998.5235
2023-05-26T11:43:02.009Z,998.5744
2023-05-26T11:44:01.474Z,998.6035
2023-05-26T11:45:03.597Z,998.6254
2023-05-26T11:46:03.041Z,998.5301
2023-05-26T11:47:03.691Z,998.6262
2023-05-26T11:48:01.358Z,998.48
2023-05-26T11:49:01.809Z,998.4725
2023-05-26T11:50:05.263Z,998.4869
2023-05-26T11:51:01.682Z,998.6334
2023-05-26T11:52:02.188Z,998.4137
2023-05-26T11:53:03.260Z,998.5158
2023-05-26T11:54:03.694Z,998.8229